Terminal Aerodrome Forecast
Issued by NWS Shreveport, LA

Home | Current Version | Previous Version | Text Only | Print | Product List | Glossary On
Versions: 1 2 3 4 5 6 7 8 9 10 11 12
722
FTUS44 KSHV 161720
TAFSHV
TAF
KSHV 161720Z 1618/1718 18008KT P6SM BKN170 BKN250
     FM162100 17007KT P6SM BKN070
     FM170000 14005KT P6SM VCSH BKN040
     FM170100 12005KT 5SM -SHRA BR OVC040
     FM170500 VRB06KT 2SM SHRA BR OVC015
     FM171000 13005KT 4SM BR VCSH OVC003=

USA.gov is the U.S. government's official web portal to all federal, state and local government web resources and services.